Terminal Aerodrome Forecast
Issued by NWS

Current Version | Previous Version | Text Only | Print | Product List | Glossary On
Versions: 1 2 3 4 5 6 7 8 9 10 11 12 13 14 15 16 17 18 19 20 21
441
FTUS41 KBGM 211734
TAFELM
TAF
KELM 211734Z 2118/2218 19005KT P6SM FEW006 OVC012
      TEMPO 2118/2121 SCT015
     FM220400 00000KT 3/4SM BR OVC004
     FM221500 12005KT 5SM BR SCT006 OVC012=

USA.gov is the U.S. government's official web portal to all federal, state and local government web resources and services.